Time;durP1;ratioP1;P1;durP2;ratioP2;P2;SDS_P1;SDS_P2;PMS_P1;PMS_P2;Temp;Humidity;BMP_temperature;BMP_pressure;BME280_temperature;BME280_humidity;BME280_pressure;Samples;Min_cycle;Max_cycle;Signal;HPM_P1;HPM_P2
2020/12/28 00:01:17;;;;;;;;;33.00;29.50;;;;;;;;4944912;28;11601;-84
2020/12/28 00:03:44;;;;;;;;;20.50;17.75;;;;;;;;4949008;28;11559;-84
2020/12/28 00:06:11;;;;;;;;;23.50;23.50;;;;;;;;4937193;28;11592;-83
2020/12/28 00:08:38;;;;;;;;;25.25;20.00;;;;;;;;4932250;28;11637;-84
2020/12/28 00:11:05;;;;;;;;;10.50;10.50;;;;;;;;4958404;28;11607;-84
2020/12/28 00:13:32;;;;;;;;;10.00;10.00;;;;;;;;4946753;28;11585;-85
2020/12/28 00:15:59;;;;;;;;;7.25;7.25;;;;;;;;4935725;28;11559;-83
2020/12/28 00:18:26;;;;;;;;;6.50;6.50;;;;;;;;4950055;28;11510;-85
2020/12/28 00:20:53;;;;;;;;;9.50;7.00;;;;;;;;4947438;28;11699;-82
2020/12/28 00:23:20;;;;;;;;;12.25;10.50;;;;;;;;4947535;28;12279;-81
2020/12/28 00:25:47;;;;;;;;;6.50;5.00;;;;;;;;4950942;28;11569;-84
2020/12/28 00:28:14;;;;;;;;;8.50;7.50;;;;;;;;4948782;28;11520;-84
2020/12/28 00:30:41;;;;;;;;;7.00;7.00;;;;;;;;4953838;28;11485;-85
2020/12/28 00:33:08;;;;;;;;;9.50;5.00;;;;;;;;4946458;28;11598;-84
2020/12/28 00:35:35;;;;;;;;;12.75;8.00;;;;;;;;4955906;28;11584;-83
2020/12/28 00:38:02;;;;;;;;;9.25;9.25;;;;;;;;4946860;28;12360;-83
2020/12/28 00:40:29;;;;;;;;;1.00;1.00;;;;;;;;4944699;28;11541;-85
2020/12/28 00:42:56;;;;;;;;;8.00;8.00;;;;;;;;4946207;28;11530;-85
2020/12/28 00:45:22;;;;;;;;;15.00;15.00;;;;;;;;4950233;28;11549;-85
2020/12/28 00:47:49;;;;;;;;;12.00;12.00;;;;;;;;4948410;28;11705;-85
2020/12/28 01:05:22;;;;;;;;;13.25;12.00;;;;;;;;4885373;29;11595;-83
2020/12/28 01:07:49;;;;;;;;;21.00;14.75;;;;;;;;4884338;29;11570;-83
2020/12/28 01:10:16;;;;;;;;;25.00;19.00;;;;;;;;4932589;28;11703;-82
2020/12/28 01:12:43;;;;;;;;;21.00;17.50;;;;;;;;4937778;28;11560;-82
2020/12/28 01:15:10;;;;;;;;;18.00;16.00;;;;;;;;4946374;28;11599;-82
2020/12/28 01:17:37;;;;;;;;;21.75;17.50;;;;;;;;4954737;28;11607;-82
2020/12/28 01:20:04;;;;;;;;;20.25;20.25;;;;;;;;4951811;28;11591;-83
2020/12/28 01:25:13;;;;;;;;;72.33;50.67;;;;;;;;4895680;29;11559;-83
2020/12/28 01:27:41;;;;;;;;;23.50;19.25;;;;;;;;4957018;28;8888;-82
2020/12/28 01:30:07;;;;;;;;;16.00;16.00;;;;;;;;4953628;28;11751;-84
2020/12/28 01:32:35;;;;;;;;;17.00;14.25;;;;;;;;4955019;28;11651;-82
2020/12/28 01:35:02;;;;;;;;;15.75;15.75;;;;;;;;4934705;28;12477;-82
2020/12/28 01:37:29;;;;;;;;;16.25;14.00;;;;;;;;4954977;28;11598;-86
2020/12/28 01:39:56;;;;;;;;;14.50;14.50;;;;;;;;4953923;28;11591;-86
2020/12/28 01:59:39;;;;;;;;;15.00;12.50;;;;;;;;4984840;28;11497;-86
2020/12/28 02:02:08;;;;;;;;;11.75;11.75;;;;;;;;4984960;28;11474;-87
2020/12/28 02:04:35;;;;;;;;;13.00;13.00;;;;;;;;4986493;28;11512;-86
2020/12/28 02:07:04;;;;;;;;;13.25;10.75;;;;;;;;4994058;28;12218;-86
2020/12/28 02:09:31;;;;;;;;;17.25;16.50;;;;;;;;4989770;28;11749;-86
2020/12/28 02:11:57;;;;;;;;;14.75;14.75;;;;;;;;4991517;28;11621;-87
2020/12/28 02:14:25;;;;;;;;;11.25;9.00;;;;;;;;4984474;28;11503;-83
2020/12/28 02:16:53;;;;;;;;;9.00;9.00;;;;;;;;4976625;28;11573;-81
2020/12/28 02:19:20;;;;;;;;;11.00;11.00;;;;;;;;4975914;28;11511;-80
2020/12/28 02:21:51;;;;;;;;;12.50;11.50;;;;;;;;4999614;28;11609;-82
2020/12/28 02:24:19;;;;;;;;;14.25;11.50;;;;;;;;4977421;28;12177;-82
2020/12/28 02:26:46;;;;;;;;;10.50;8.75;;;;;;;;4993936;28;12407;-84
2020/12/28 02:29:13;;;;;;;;;12.50;10.50;;;;;;;;4996139;28;11624;-83
2020/12/28 02:31:40;;;;;;;;;11.50;8.00;;;;;;;;5002102;28;11502;-83
2020/12/28 02:34:07;;;;;;;;;12.00;8.75;;;;;;;;4994006;28;11553;-82
2020/12/28 02:36:34;;;;;;;;;7.75;7.50;;;;;;;;4992189;28;11612;-83
2020/12/28 02:39:02;;;;;;;;;14.25;8.50;;;;;;;;4988148;28;12287;-84
2020/12/28 02:41:28;;;;;;;;;6.75;5.75;;;;;;;;4993158;28;11643;-81
2020/12/28 02:43:55;;;;;;;;;8.25;8.25;;;;;;;;4998347;28;11502;-82
2020/12/28 02:46:22;;;;;;;;;7.25;7.25;;;;;;;;4981816;28;11671;-82
2020/12/28 02:48:49;;;;;;;;;7.00;7.00;;;;;;;;4988588;28;11590;-82
2020/12/28 02:51:16;;;;;;;;;7.25;6.50;;;;;;;;4994335;28;11468;-83
2020/12/28 02:53:43;;;;;;;;;4.00;4.00;;;;;;;;4994491;28;11510;-82
2020/12/28 02:56:11;;;;;;;;;5.00;5.00;;;;;;;;4994204;28;11502;-83
2020/12/28 02:58:37;;;;;;;;;5.00;2.50;;;;;;;;4992561;28;11599;-83
2020/12/28 03:01:13;;;;;;;;;7.75;3.50;;;;;;;;4999319;28;11458;-84
2020/12/28 03:03:40;;;;;;;;;7.50;4.25;;;;;;;;4986765;28;11467;-84
2020/12/28 03:06:06;;;;;;;;;8.00;5.50;;;;;;;;4995699;28;11522;-83
2020/12/28 03:08:33;;;;;;;;;11.50;5.00;;;;;;;;5002710;28;11491;-83
2020/12/28 03:11:01;;;;;;;;;8.00;4.75;;;;;;;;4968927;28;11624;-82
2020/12/28 03:13:28;;;;;;;;;8.00;5.00;;;;;;;;4966628;28;11458;-82
2020/12/28 03:15:55;;;;;;;;;6.00;4.00;;;;;;;;4970718;28;11753;-82
2020/12/28 03:18:22;;;;;;;;;5.00;2.50;;;;;;;;4992776;28;11519;-82
2020/12/28 03:20:49;;;;;;;;;3.50;3.50;;;;;;;;4972222;28;11496;-82
2020/12/28 03:23:16;;;;;;;;;5.00;5.00;;;;;;;;4996785;28;11583;-86
2020/12/28 03:25:42;;;;;;;;;2.00;2.00;;;;;;;;4983079;28;11480;-82
2020/12/28 03:28:09;;;;;;;;;4.00;4.00;;;;;;;;5000289;28;11724;-81
2020/12/28 03:30:37;;;;;;;;;4.50;4.50;;;;;;;;4997392;28;11490;-83
2020/12/28 03:33:04;;;;;;;;;5.25;5.25;;;;;;;;4999236;28;11548;-83
2020/12/28 03:35:31;;;;;;;;;4.25;4.25;;;;;;;;4988315;28;11514;-84
2020/12/28 03:37:58;;;;;;;;;4.00;4.00;;;;;;;;4986872;28;11464;-83
2020/12/28 03:40:24;;;;;;;;;25.25;18.75;;;;;;;;4976483;28;11576;-84
2020/12/28 03:42:51;;;;;;;;;6.75;6.75;;;;;;;;4991448;28;11531;-85
2020/12/28 03:54:58;;;;;;;;;7.75;7.75;;;;;;;;5311528;23;11477;-82
2020/12/28 03:57:25;;;;;;;;;4.00;4.00;;;;;;;;4955627;28;11524;-83
2020/12/28 03:59:52;;;;;;;;;4.75;3.00;;;;;;;;4953325;28;11579;-83
2020/12/28 04:02:19;;;;;;;;;8.50;4.50;;;;;;;;4935580;28;11474;-84
2020/12/28 04:04:46;;;;;;;;;4.25;4.00;;;;;;;;4950300;28;11588;-83
2020/12/28 04:07:13;;;;;;;;;5.75;5.75;;;;;;;;4954006;28;11589;-84
2020/12/28 04:09:40;;;;;;;;;8.25;4.75;;;;;;;;4948287;28;11506;-85
2020/12/28 04:12:08;;;;;;;;;3.50;1.25;;;;;;;;4950143;28;11549;-84
2020/12/28 04:14:35;;;;;;;;;4.75;4.75;;;;;;;;4946083;28;11641;-85
2020/12/28 04:17:02;;;;;;;;;6.25;5.00;;;;;;;;4946245;28;11585;-82
2020/12/28 04:19:29;;;;;;;;;5.00;5.00;;;;;;;;4947387;28;11509;-83
2020/12/28 04:25:18;;;;;;;;;6.25;4.00;;;;;;;;4950749;28;11650;-81
2020/12/28 04:27:45;;;;;;;;;4.75;4.75;;;;;;;;4950756;28;11616;-83
2020/12/28 04:30:12;;;;;;;;;6.00;5.00;;;;;;;;4949947;28;12383;-83
2020/12/28 04:32:39;;;;;;;;;8.00;5.75;;;;;;;;4917091;28;12765;-83
2020/12/28 04:35:06;;;;;;;;;6.50;4.50;;;;;;;;4953139;28;11484;-82
2020/12/28 04:37:34;;;;;;;;;9.00;5.00;;;;;;;;4944139;28;11548;-80
2020/12/28 04:40:00;;;;;;;;;6.25;5.50;;;;;;;;4955818;28;11514;-81
2020/12/28 04:42:29;;;;;;;;;6.00;6.00;;;;;;;;4950534;28;11560;-85
2020/12/28 04:44:57;;;;;;;;;8.25;4.00;;;;;;;;4954836;28;11539;-84
2020/12/28 04:47:24;;;;;;;;;7.25;6.25;;;;;;;;4955491;28;11561;-84
2020/12/28 04:49:52;;;;;;;;;6.00;5.75;;;;;;;;4931571;28;11518;-86
2020/12/28 04:52:19;;;;;;;;;8.75;6.00;;;;;;;;4947886;28;12364;-85
2020/12/28 04:54:48;;;;;;;;;3.00;3.00;;;;;;;;4948285;28;11668;-84
2020/12/28 04:57:15;;;;;;;;;6.75;5.50;;;;;;;;4942551;28;11538;-85
2020/12/28 04:59:42;;;;;;;;;7.00;4.25;;;;;;;;4951708;28;11617;-85
2020/12/28 05:02:10;;;;;;;;;4.00;4.00;;;;;;;;4955016;28;11441;-85
2020/12/28 05:04:37;;;;;;;;;6.75;6.00;;;;;;;;4932658;28;11672;-84
2020/12/28 05:07:05;;;;;;;;;2.00;2.00;;;;;;;;4953694;28;11493;-85
2020/12/28 05:09:33;;;;;;;;;15.75;13.00;;;;;;;;4951893;28;11511;-83
2020/12/28 05:12:02;;;;;;;;;6.25;5.00;;;;;;;;4947470;28;11633;-85
2020/12/28 05:14:29;;;;;;;;;4.00;4.00;;;;;;;;4951056;28;11548;-84
2020/12/28 05:16:59;;;;;;;;;6.00;6.00;;;;;;;;4959390;28;11495;-85
2020/12/28 05:19:28;;;;;;;;;5.75;4.25;;;;;;;;4940072;28;11575;-85
2020/12/28 05:21:55;;;;;;;;;4.25;4.25;;;;;;;;4951313;28;12332;-83
2020/12/28 05:24:23;;;;;;;;;4.00;4.00;;;;;;;;4929591;28;11593;-83
2020/12/28 05:26:50;;;;;;;;;5.00;5.00;;;;;;;;4952831;28;11641;-83
2020/12/28 05:29:20;;;;;;;;;4.75;4.50;;;;;;;;4960943;28;11516;-82
2020/12/28 05:31:47;;;;;;;;;7.00;5.00;;;;;;;;4931915;28;11488;-83
2020/12/28 05:34:15;;;;;;;;;5.00;5.00;;;;;;;;4944191;29;11690;-84
2020/12/28 05:36:45;;;;;;;;;4.75;4.75;;;;;;;;4946754;28;11670;-83
2020/12/28 05:39:15;;;;;;;;;6.00;5.00;;;;;;;;4951304;28;11557;-82
2020/12/28 05:41:53;;;;;;;;;2.00;2.00;;;;;;;;4951041;28;11661;-82
2020/12/28 05:44:23;;;;;;;;;4.00;4.00;;;;;;;;4961514;28;11522;-84
2020/12/28 05:47:01;;;;;;;;;4.75;4.75;;;;;;;;4950333;28;11515;-84
2020/12/28 05:49:33;;;;;;;;;9.00;6.50;;;;;;;;4952907;28;11680;-83
2020/12/28 05:52:02;;;;;;;;;5.00;5.00;;;;;;;;4948862;28;11637;-83
2020/12/28 05:54:29;;;;;;;;;5.75;4.00;;;;;;;;4940960;28;11615;-86
2020/12/28 05:56:57;;;;;;;;;6.00;6.00;;;;;;;;4952481;28;11501;-83
2020/12/28 05:59:24;;;;;;;;;6.25;4.50;;;;;;;;4954523;28;11550;-84
2020/12/28 06:01:52;;;;;;;;;8.75;4.25;;;;;;;;4955765;28;11569;-83
2020/12/28 06:04:19;;;;;;;;;6.00;6.00;;;;;;;;4951369;28;11488;-84
2020/12/28 06:09:36;;;;;;;;;4.00;4.00;;;;;;;;4900823;28;11486;-83
2020/12/28 06:12:03;;;;;;;;;8.00;8.00;;;;;;;;4951570;28;11635;-82
2020/12/28 06:14:34;;;;;;;;;7.25;6.00;;;;;;;;4958429;28;11583;-83
2020/12/28 06:17:04;;;;;;;;;8.00;8.00;;;;;;;;4957516;28;11502;-80
2020/12/28 06:22:20;;;;;;;;;5.00;5.00;;;;;;;;4905754;29;11639;-86
2020/12/28 06:24:58;;;;;;;;;5.75;4.25;;;;;;;;4909400;29;11658;-81
2020/12/28 06:27:30;;;;;;;;;8.00;8.00;;;;;;;;4949982;28;11542;-83
2020/12/28 06:30:11;;;;;;;;;4.00;4.00;;;;;;;;4933008;28;11541;-90
2020/12/28 06:32:38;;;;;;;;;5.50;5.50;;;;;;;;4948454;28;11426;-85
2020/12/28 06:35:07;;;;;;;;;4.25;4.25;;;;;;;;4959986;28;11480;-83
2020/12/28 06:37:47;;;;;;;;;4.75;4.75;;;;;;;;4935320;28;11595;-83
2020/12/28 06:40:16;;;;;;;;;5.75;5.75;;;;;;;;4947648;28;11642;-84
2020/12/28 06:42:43;;;;;;;;;7.50;7.50;;;;;;;;4947955;28;11566;-82
2020/12/28 06:45:12;;;;;;;;;12.75;8.75;;;;;;;;4934062;28;11536;-83
2020/12/28 06:47:39;;;;;;;;;9.00;9.00;;;;;;;;4949209;28;11569;-82
2020/12/28 06:50:06;;;;;;;;;9.00;9.00;;;;;;;;4951353;28;11481;-82
2020/12/28 06:52:33;;;;;;;;;11.50;9.00;;;;;;;;4957249;28;11665;-82
2020/12/28 06:55:08;;;;;;;;;7.00;7.00;;;;;;;;4964261;28;11622;-84
2020/12/28 06:57:36;;;;;;;;;7.50;5.50;;;;;;;;4964223;28;12110;-83
2020/12/28 07:00:05;;;;;;;;;8.25;8.25;;;;;;;;4958844;28;11573;-86
2020/12/28 07:02:33;;;;;;;;;9.00;9.00;;;;;;;;4930627;28;11620;-84
2020/12/28 07:05:03;;;;;;;;;9.00;9.00;;;;;;;;4948305;28;11554;-83
2020/12/28 07:07:40;;;;;;;;;7.50;7.50;;;;;;;;4947652;28;11555;-85
2020/12/28 07:10:07;;;;;;;;;9.50;8.00;;;;;;;;4935677;28;11570;-84
2020/12/28 07:12:35;;;;;;;;;9.75;9.75;;;;;;;;4953517;28;11526;-84
2020/12/28 07:15:04;;;;;;;;;8.00;5.25;;;;;;;;4950508;28;11538;-83
2020/12/28 07:17:31;;;;;;;;;5.75;5.75;;;;;;;;4935527;28;11552;-85
2020/12/28 07:20:03;;;;;;;;;8.50;7.00;;;;;;;;4938793;28;11563;-83
2020/12/28 07:22:36;;;;;;;;;7.00;4.25;;;;;;;;4953507;28;11657;-84
2020/12/28 07:25:04;;;;;;;;;8.25;7.00;;;;;;;;4952396;28;11486;-85
2020/12/28 07:27:31;;;;;;;;;8.25;8.25;;;;;;;;4948484;28;11527;-84
2020/12/28 07:29:59;;;;;;;;;10.00;8.75;;;;;;;;4952183;28;11555;-82
2020/12/28 07:32:26;;;;;;;;;6.00;6.00;;;;;;;;4951752;28;11476;-83
2020/12/28 07:34:54;;;;;;;;;16.25;14.00;;;;;;;;4936102;28;11559;-85
2020/12/28 07:37:21;;;;;;;;;5.00;5.00;;;;;;;;4954176;28;11549;-83
2020/12/28 07:39:49;;;;;;;;;5.00;5.00;;;;;;;;4957796;28;11520;-86
2020/12/28 07:42:20;;;;;;;;;3.00;3.00;;;;;;;;4955026;28;12302;-84
2020/12/28 07:44:55;;;;;;;;;6.00;4.75;;;;;;;;4955017;28;11563;-83
2020/12/28 07:47:36;;;;;;;;;4.00;4.00;;;;;;;;4952129;28;11626;-83
2020/12/28 07:50:05;;;;;;;;;4.00;4.00;;;;;;;;4949620;28;11504;-70
2020/12/28 07:52:35;;;;;;;;;1.50;1.50;;;;;;;;4952517;28;11689;-71
2020/12/28 07:55:06;;;;;;;;;3.50;3.50;;;;;;;;4943706;28;11535;-74
2020/12/28 07:57:47;;;;;;;;;2.00;2.00;;;;;;;;4949129;28;12412;-70
2020/12/28 08:00:17;;;;;;;;;2.00;2.00;;;;;;;;4950285;28;11507;-71
2020/12/28 08:03:06;;;;;;;;;2.00;2.00;;;;;;;;4951962;28;11525;-70
2020/12/28 08:05:36;;;;;;;;;2.00;2.00;;;;;;;;4942647;28;11568;-69
2020/12/28 08:08:03;;;;;;;;;3.00;3.00;;;;;;;;4950579;28;11606;-69
2020/12/28 08:10:30;;;;;;;;;2.00;2.00;;;;;;;;4944956;28;11582;-71
2020/12/28 08:12:59;;;;;;;;;4.00;4.00;;;;;;;;4953609;28;11540;-71
2020/12/28 08:15:30;;;;;;;;;5.50;4.75;;;;;;;;4959725;28;11499;-71
2020/12/28 08:18:08;;;;;;;;;2.00;2.00;;;;;;;;4955342;28;11573;-71
2020/12/28 08:20:35;;;;;;;;;4.00;1.50;;;;;;;;4949531;28;11606;-71
2020/12/28 08:23:01;;;;;;;;;4.00;1.50;;;;;;;;4953264;28;11634;-71
2020/12/28 08:25:29;;;;;;;;;9.25;2.50;;;;;;;;4948443;28;11584;-72
2020/12/28 08:27:56;;;;;;;;;2.00;2.00;;;;;;;;4948488;28;11546;-72
2020/12/28 08:30:26;;;;;;;;;1.00;1.00;;;;;;;;4951521;28;11328;-70
2020/12/28 08:32:53;;;;;;;;;1.00;1.00;;;;;;;;4952147;28;11505;-71
2020/12/28 08:35:21;;;;;;;;;3.00;2.00;;;;;;;;4951050;28;11495;-71
2020/12/28 08:37:48;;;;;;;;;2.00;2.00;;;;;;;;4946328;28;11571;-71
2020/12/28 08:40:16;;;;;;;;;4.00;4.00;;;;;;;;4945595;28;11562;-72
2020/12/28 08:42:42;;;;;;;;;1.00;1.00;;;;;;;;4949852;28;11486;-70
2020/12/28 08:45:17;;;;;;;;;1.00;1.00;;;;;;;;4954962;28;11502;-71
2020/12/28 08:47:44;;;;;;;;;4.50;1.25;;;;;;;;4955533;28;11532;-72
2020/12/28 08:50:12;;;;;;;;;2.00;2.00;;;;;;;;4948716;28;11506;-71
2020/12/28 08:52:49;;;;;;;;;1.00;1.00;;;;;;;;4953733;28;11565;-72
2020/12/28 08:55:16;;;;;;;;;2.00;1.00;;;;;;;;4956106;28;11499;-71
2020/12/28 08:57:43;;;;;;;;;1.00;1.00;;;;;;;;4960954;28;11606;-71
2020/12/28 09:00:09;;;;;;;;;1.00;1.00;;;;;;;;4942647;28;11563;-72
2020/12/28 09:02:38;;;;;;;;;1.00;1.00;;;;;;;;4941290;28;11628;-72
2020/12/28 09:05:04;;;;;;;;;1.00;1.00;;;;;;;;4947242;28;12339;-71
2020/12/28 09:07:31;;;;;;;;;0.00;0.00;;;;;;;;4953175;28;11513;-71
2020/12/28 09:09:59;;;;;;;;;1.50;1.50;;;;;;;;4947366;28;11489;-72
2020/12/28 09:12:25;;;;;;;;;1.00;1.00;;;;;;;;4959755;28;11454;-71
2020/12/28 09:14:52;;;;;;;;;1.00;1.00;;;;;;;;4950853;28;11473;-70
2020/12/28 09:17:19;;;;;;;;;0.50;0.50;;;;;;;;4950799;28;11460;-70
2020/12/28 09:19:45;;;;;;;;;0.00;0.00;;;;;;;;4956879;28;11575;-71
2020/12/28 09:22:12;;;;;;;;;1.00;0.00;;;;;;;;4958823;28;11555;-70
2020/12/28 09:24:39;;;;;;;;;0.00;0.00;;;;;;;;4956551;28;11526;-70
2020/12/28 09:27:07;;;;;;;;;0.00;0.00;;;;;;;;4950578;28;11492;-71
2020/12/28 09:29:35;;;;;;;;;0.00;0.00;;;;;;;;4938499;28;11502;-69
2020/12/28 09:32:02;;;;;;;;;0.00;0.00;;;;;;;;4951820;28;11534;-70
2020/12/28 09:34:29;;;;;;;;;0.00;0.00;;;;;;;;4950036;28;11527;-71
2020/12/28 09:37:00;;;;;;;;;0.00;0.00;;;;;;;;4957035;28;12368;-71
2020/12/28 09:39:26;;;;;;;;;0.00;0.00;;;;;;;;4954518;28;11651;-71
2020/12/28 09:41:53;;;;;;;;;0.00;0.00;;;;;;;;4953496;28;11532;-71
2020/12/28 09:44:21;;;;;;;;;0.00;0.00;;;;;;;;4960960;28;11568;-71
2020/12/28 09:46:50;;;;;;;;;0.00;0.00;;;;;;;;4957185;28;11487;-71
2020/12/28 09:49:17;;;;;;;;;0.00;0.00;;;;;;;;4942857;28;11484;-70
2020/12/28 09:51:46;;;;;;;;;4.00;1.00;;;;;;;;4950798;28;12228;-71
2020/12/28 09:54:13;;;;;;;;;0.00;0.00;;;;;;;;4955063;28;11485;-71
2020/12/28 09:56:39;;;;;;;;;0.75;0.75;;;;;;;;4949790;28;11536;-72
2020/12/28 09:59:06;;;;;;;;;0.00;0.00;;;;;;;;4959069;28;11563;-72
2020/12/28 10:01:34;;;;;;;;;1.00;1.00;;;;;;;;4965216;28;11410;-72
2020/12/28 10:04:01;;;;;;;;;1.25;1.00;;;;;;;;4951280;28;11480;-73
2020/12/28 10:06:31;;;;;;;;;0.25;0.25;;;;;;;;4956189;28;11546;-72
2020/12/28 10:08:58;;;;;;;;;0.75;0.75;;;;;;;;4960408;28;11593;-72
2020/12/28 10:11:24;;;;;;;;;0.00;0.00;;;;;;;;4949784;28;11545;-72
2020/12/28 10:13:51;;;;;;;;;0.00;0.00;;;;;;;;4950864;28;12338;-72
2020/12/28 10:16:22;;;;;;;;;0.00;0.00;;;;;;;;4954404;28;12263;-72
2020/12/28 10:18:49;;;;;;;;;1.00;0.00;;;;;;;;4952331;28;12382;-71
2020/12/28 10:21:16;;;;;;;;;1.00;0.00;;;;;;;;4955033;28;11679;-72
2020/12/28 10:23:43;;;;;;;;;0.00;0.00;;;;;;;;4949252;28;11584;-72
2020/12/28 10:26:16;;;;;;;;;0.00;0.00;;;;;;;;4955193;28;11598;-72
2020/12/28 10:28:43;;;;;;;;;0.00;0.00;;;;;;;;4949063;28;11516;-72
2020/12/28 10:31:11;;;;;;;;;0.00;0.00;;;;;;;;4950556;28;11515;-72
2020/12/28 10:33:38;;;;;;;;;0.00;0.00;;;;;;;;4951146;28;11561;-72
2020/12/28 10:36:06;;;;;;;;;0.00;0.00;;;;;;;;4947804;28;11589;-71
2020/12/28 10:38:33;;;;;;;;;0.00;0.00;;;;;;;;4941335;28;11496;-71
2020/12/28 10:41:00;;;;;;;;;0.00;0.00;;;;;;;;4959675;28;11493;-70
2020/12/28 10:43:27;;;;;;;;;0.00;0.00;;;;;;;;4953721;28;11507;-72
2020/12/28 10:45:53;;;;;;;;;0.00;0.00;;;;;;;;4946285;28;12296;-71
2020/12/28 10:48:20;;;;;;;;;0.00;0.00;;;;;;;;4946410;28;11565;-71
2020/12/28 10:50:47;;;;;;;;;2.00;0.00;;;;;;;;4947170;28;11499;-71
2020/12/28 10:53:14;;;;;;;;;0.00;0.00;;;;;;;;4950691;28;12265;-72
2020/12/28 10:55:41;;;;;;;;;0.00;0.00;;;;;;;;4946437;28;11520;-71
2020/12/28 10:58:09;;;;;;;;;0.00;0.00;;;;;;;;4953647;28;11582;-71
2020/12/28 11:00:36;;;;;;;;;0.00;0.00;;;;;;;;4956925;28;11375;-70
2020/12/28 11:03:03;;;;;;;;;0.00;0.00;;;;;;;;4952390;28;11637;-72
2020/12/28 11:05:30;;;;;;;;;0.00;0.00;;;;;;;;4944841;28;11460;-72
2020/12/28 11:07:56;;;;;;;;;0.00;0.00;;;;;;;;4956539;28;11483;-72
2020/12/28 11:10:24;;;;;;;;;1.00;0.00;;;;;;;;4947489;28;11481;-71
2020/12/28 11:12:51;;;;;;;;;0.00;0.00;;;;;;;;4950666;28;11471;-71
2020/12/28 11:15:18;;;;;;;;;0.25;0.00;;;;;;;;4932436;28;11476;-71
2020/12/28 11:17:45;;;;;;;;;0.75;0.75;;;;;;;;4947651;28;11506;-71
2020/12/28 11:20:11;;;;;;;;;0.00;0.00;;;;;;;;4953423;28;11484;-72
2020/12/28 11:22:38;;;;;;;;;0.00;0.00;;;;;;;;4955784;28;11478;-73
2020/12/28 11:25:05;;;;;;;;;0.00;0.00;;;;;;;;4952254;28;11484;-71
2020/12/28 11:27:32;;;;;;;;;0.00;0.00;;;;;;;;4950638;28;11548;-68
2020/12/28 11:29:59;;;;;;;;;0.50;0.50;;;;;;;;4948914;28;11491;-71
2020/12/28 11:32:26;;;;;;;;;1.00;1.00;;;;;;;;4948253;28;11442;-70
2020/12/28 11:34:53;;;;;;;;;0.00;0.00;;;;;;;;4945934;28;12261;-69
2020/12/28 11:37:20;;;;;;;;;0.00;0.00;;;;;;;;4954785;28;11459;-69
2020/12/28 11:39:47;;;;;;;;;2.00;1.00;;;;;;;;4945247;28;11518;-70
2020/12/28 11:42:15;;;;;;;;;0.50;0.50;;;;;;;;4946739;28;11479;-69
2020/12/28 11:44:43;;;;;;;;;0.00;0.00;;;;;;;;4945269;28;11494;-70
2020/12/28 11:47:10;;;;;;;;;0.00;0.00;;;;;;;;4944293;28;11472;-69
2020/12/28 11:49:37;;;;;;;;;0.00;0.00;;;;;;;;4948117;28;11608;-70
2020/12/28 11:52:04;;;;;;;;;1.00;1.00;;;;;;;;4945908;28;11594;-70
2020/12/28 11:54:31;;;;;;;;;0.50;0.50;;;;;;;;4935550;28;11506;-70
2020/12/28 11:56:58;;;;;;;;;0.25;0.25;;;;;;;;4946062;28;11509;-70
2020/12/28 11:59:24;;;;;;;;;2.00;2.00;;;;;;;;4948733;28;11533;-70
2020/12/28 12:01:52;;;;;;;;;1.75;0.00;;;;;;;;4944165;28;11552;-69
2020/12/28 12:04:47;;;;;;;;;3.25;1.00;;;;;;;;4949144;28;11436;-68
2020/12/28 12:07:05;;;;;;;;;1.00;1.00;;;;;;;;4945204;28;11469;-69
2020/12/28 12:09:32;;;;;;;;;2.50;1.00;;;;;;;;4945089;28;11475;-69
2020/12/28 12:11:59;;;;;;;;;0.00;0.00;;;;;;;;4946294;28;11518;-69
2020/12/28 12:14:25;;;;;;;;;1.00;1.00;;;;;;;;4948255;28;11503;-69
2020/12/28 12:16:54;;;;;;;;;1.75;1.75;;;;;;;;4956839;28;11552;-69
2020/12/28 12:19:21;;;;;;;;;1.75;1.75;;;;;;;;4949919;28;11342;-70
2020/12/28 12:21:48;;;;;;;;;1.00;1.00;;;;;;;;4950068;28;11521;-68
2020/12/28 12:24:14;;;;;;;;;1.00;1.00;;;;;;;;4932462;28;12291;-69
2020/12/28 12:26:41;;;;;;;;;1.00;1.00;;;;;;;;4949460;28;11433;-69
2020/12/28 12:29:08;;;;;;;;;1.00;1.00;;;;;;;;4946413;28;12203;-69
2020/12/28 12:31:35;;;;;;;;;2.50;2.50;;;;;;;;4944958;28;11497;-69
2020/12/28 12:34:02;;;;;;;;;0.00;0.00;;;;;;;;4951974;28;11514;-68
2020/12/28 12:36:29;;;;;;;;;3.00;3.00;;;;;;;;4947540;28;11483;-70
2020/12/28 12:38:56;;;;;;;;;4.50;2.00;;;;;;;;4950590;28;11305;-69
2020/12/28 12:41:23;;;;;;;;;2.00;2.00;;;;;;;;4942974;28;11524;-69
2020/12/28 12:43:49;;;;;;;;;1.75;1.75;;;;;;;;4948470;28;11483;-68
2020/12/28 12:46:16;;;;;;;;;0.50;0.00;;;;;;;;4945581;28;11496;-69
2020/12/28 12:48:44;;;;;;;;;1.25;1.25;;;;;;;;4955980;28;11514;-69
2020/12/28 12:51:12;;;;;;;;;1.00;1.00;;;;;;;;4948585;28;11568;-68
2020/12/28 12:53:39;;;;;;;;;3.00;1.00;;;;;;;;4950758;28;11519;-69
2020/12/28 12:56:06;;;;;;;;;1.00;1.00;;;;;;;;4949802;28;11478;-68
2020/12/28 12:58:33;;;;;;;;;2.00;2.00;;;;;;;;4944475;28;11496;-68
2020/12/28 13:01:00;;;;;;;;;1.00;1.00;;;;;;;;4947986;28;11429;-68
2020/12/28 13:03:27;;;;;;;;;1.50;1.00;;;;;;;;4949738;28;11480;-68
2020/12/28 13:05:54;;;;;;;;;1.50;1.50;;;;;;;;4945396;28;11488;-68
2020/12/28 13:08:22;;;;;;;;;5.00;5.00;;;;;;;;4948027;28;12273;-70
2020/12/28 13:10:48;;;;;;;;;0.00;0.00;;;;;;;;4950840;28;11512;-67
2020/12/28 13:13:15;;;;;;;;;1.00;1.00;;;;;;;;4949712;28;11482;-67
2020/12/28 13:15:42;;;;;;;;;3.50;1.00;;;;;;;;4943310;28;11510;-68
2020/12/28 13:18:09;;;;;;;;;1.00;1.00;;;;;;;;4945415;28;11581;-67
2020/12/28 13:20:35;;;;;;;;;2.00;2.00;;;;;;;;4944504;28;11814;-68
2020/12/28 13:23:02;;;;;;;;;1.00;1.00;;;;;;;;4927964;29;11185;-67
2020/12/28 13:25:30;;;;;;;;;3.50;3.50;;;;;;;;4945334;28;11122;-68
2020/12/28 13:27:57;;;;;;;;;2.50;1.75;;;;;;;;4943870;28;11498;-68
2020/12/28 13:30:23;;;;;;;;;2.50;1.25;;;;;;;;4945220;28;11110;-67
2020/12/28 13:32:50;;;;;;;;;2.00;2.00;;;;;;;;4944041;28;11286;-69
2020/12/28 13:35:17;;;;;;;;;3.00;1.00;;;;;;;;4945389;28;11503;-68
2020/12/28 13:37:44;;;;;;;;;4.25;1.00;;;;;;;;4943268;28;11364;-67
2020/12/28 13:40:10;;;;;;;;;1.50;1.50;;;;;;;;4954079;28;11293;-67
2020/12/28 13:42:38;;;;;;;;;3.25;1.75;;;;;;;;4944996;28;11247;-68
2020/12/28 13:45:05;;;;;;;;;5.00;2.00;;;;;;;;4944174;28;11281;-68
2020/12/28 13:47:34;;;;;;;;;5.25;3.75;;;;;;;;4945286;28;11611;-67
2020/12/28 13:50:00;;;;;;;;;4.75;1.00;;;;;;;;4944414;28;11622;-68
2020/12/28 13:52:27;;;;;;;;;4.50;4.50;;;;;;;;4948423;28;11585;-68
2020/12/28 13:54:54;;;;;;;;;3.25;1.25;;;;;;;;4947391;28;11500;-68
2020/12/28 13:57:21;;;;;;;;;5.50;3.25;;;;;;;;4945389;28;11562;-68
2020/12/28 13:59:48;;;;;;;;;8.00;4.00;;;;;;;;4944175;28;12277;-67
2020/12/28 14:02:15;;;;;;;;;5.25;5.00;;;;;;;;4943980;28;11453;-67
2020/12/28 14:04:41;;;;;;;;;6.00;6.00;;;;;;;;4947773;28;11614;-68
2020/12/28 14:07:08;;;;;;;;;5.00;2.00;;;;;;;;4946870;28;11495;-68
2020/12/28 14:09:35;;;;;;;;;8.25;4.25;;;;;;;;4948086;28;11505;-68
2020/12/28 14:12:01;;;;;;;;;2.00;2.00;;;;;;;;4947150;28;11488;-68
2020/12/28 14:14:28;;;;;;;;;3.50;1.50;;;;;;;;4958210;28;11447;-68
2020/12/28 14:16:56;;;;;;;;;2.00;2.00;;;;;;;;4953294;28;11519;-68
2020/12/28 14:19:23;;;;;;;;;4.50;4.50;;;;;;;;4954728;28;11528;-67
2020/12/28 14:21:50;;;;;;;;;7.00;5.00;;;;;;;;4952459;28;11493;-67
2020/12/28 14:24:16;;;;;;;;;1.00;1.00;;;;;;;;4950294;28;11525;-69
2020/12/28 14:26:46;;;;;;;;;4.00;1.75;;;;;;;;4949893;28;12294;-68
2020/12/28 14:29:13;;;;;;;;;7.50;4.00;;;;;;;;4949747;28;11502;-67
2020/12/28 14:31:39;;;;;;;;;3.75;3.00;;;;;;;;4965654;28;11397;-67
2020/12/28 14:34:07;;;;;;;;;2.75;1.00;;;;;;;;4964859;28;11536;-67
2020/12/28 14:36:34;;;;;;;;;2.00;0.50;;;;;;;;4945219;28;11482;-67
2020/12/28 14:39:01;;;;;;;;;0.00;0.00;;;;;;;;4946855;28;11464;-67
2020/12/28 14:41:27;;;;;;;;;0.50;0.00;;;;;;;;4953066;28;11507;-67
2020/12/28 14:43:54;;;;;;;;;1.75;1.75;;;;;;;;4961974;28;11414;-68
2020/12/28 14:46:22;;;;;;;;;0.00;0.00;;;;;;;;4954495;28;11534;-68
2020/12/28 14:48:50;;;;;;;;;1.00;1.00;;;;;;;;4959568;28;11613;-67
2020/12/28 14:51:18;;;;;;;;;2.00;1.00;;;;;;;;4951125;28;11509;-69
2020/12/28 14:53:45;;;;;;;;;1.00;1.00;;;;;;;;4963467;28;11603;-68
2020/12/28 14:56:16;;;;;;;;;0.00;0.00;;;;;;;;4949955;28;11609;-67
2020/12/28 14:58:43;;;;;;;;;0.00;0.00;;;;;;;;4933067;28;11462;-67
2020/12/28 15:01:10;;;;;;;;;1.00;1.00;;;;;;;;4948143;28;11416;-67
2020/12/28 15:03:37;;;;;;;;;1.00;1.00;;;;;;;;4948629;28;11499;-67
2020/12/28 15:06:06;;;;;;;;;4.50;2.00;;;;;;;;4966048;28;11478;-67
2020/12/28 15:08:34;;;;;;;;;0.00;0.00;;;;;;;;4961449;28;12219;-67
2020/12/28 15:11:00;;;;;;;;;1.00;1.00;;;;;;;;4960786;28;11569;-68
2020/12/28 15:13:27;;;;;;;;;1.00;1.00;;;;;;;;4956121;28;11487;-68
2020/12/28 15:15:54;;;;;;;;;2.00;2.00;;;;;;;;4948129;28;11557;-68
2020/12/28 15:18:20;;;;;;;;;1.50;1.50;;;;;;;;4957179;28;11491;-68
2020/12/28 15:20:47;;;;;;;;;1.00;1.00;;;;;;;;4954786;28;11508;-70
2020/12/28 15:23:14;;;;;;;;;0.75;0.75;;;;;;;;4951001;28;11623;-67
2020/12/28 15:25:41;;;;;;;;;1.00;1.00;;;;;;;;4947219;28;11496;-68
2020/12/28 15:28:08;;;;;;;;;1.00;1.00;;;;;;;;4947050;28;11492;-68
2020/12/28 15:30:34;;;;;;;;;1.75;1.75;;;;;;;;4956508;28;12193;-70
2020/12/28 15:33:01;;;;;;;;;1.50;1.00;;;;;;;;4950898;28;12191;-68
2020/12/28 15:35:28;;;;;;;;;2.00;2.00;;;;;;;;4963612;28;11496;-68
2020/12/28 15:37:55;;;;;;;;;2.00;2.00;;;;;;;;4958022;28;11584;-68